sensor_id;sensor_type;location;lat;lon;timestamp;pressure;altitude;pressure_sealevel;temperature;humidity
49030;BME280;43337;52.070;4.508;2024-02-23T00:02:17;98819.28;;;5.38;100.00
49030;BME280;43337;52.070;4.508;2024-02-23T00:04:43;98804.22;;;5.27;100.00
49030;BME280;43337;52.070;4.508;2024-02-23T00:07:09;98772.03;;;5.11;100.00
49030;BME280;43337;52.070;4.508;2024-02-23T00:09:36;98824.50;;;5.38;100.00
49030;BME280;43337;52.070;4.508;2024-02-23T00:12:01;98821.66;;;5.43;100.00
49030;BME280;43337;52.070;4.508;2024-02-23T00:14:27;98834.19;;;5.36;100.00
49030;BME280;43337;52.070;4.508;2024-02-23T00:16:53;98781.13;;;5.04;100.00
49030;BME280;43337;52.070;4.508;2024-02-23T00:19:19;98838.47;;;5.37;100.00
49030;BME280;43337;52.070;4.508;2024-02-23T00:21:45;98813.59;;;5.14;100.00
49030;BME280;43337;52.070;4.508;2024-02-23T00:24:16;98825.00;;;5.29;100.00
49030;BME280;43337;52.070;4.508;2024-02-23T00:26:44;98856.44;;;5.43;100.00
49030;BME280;43337;52.070;4.508;2024-02-23T00:29:12;98843.69;;;5.37;100.00
49030;BME280;43337;52.070;4.508;2024-02-23T00:31:38;98827.06;;;5.22;100.00
49030;BME280;43337;52.070;4.508;2024-02-23T00:34:06;98866.09;;;5.41;100.00
49030;BME280;43337;52.070;4.508;2024-02-23T00:36:35;98829.88;;;5.19;100.00
49030;BME280;43337;52.070;4.508;2024-02-23T00:39:01;98831.84;;;5.14;100.00
49030;BME280;43337;52.070;4.508;2024-02-23T00:41:28;98868.34;;;5.31;100.00
49030;BME280;43337;52.070;4.508;2024-02-23T00:43:53;98857.81;;;5.33;100.00
49030;BME280;43337;52.070;4.508;2024-02-23T00:46:19;98876.88;;;5.35;100.00
49030;BME280;43337;52.070;4.508;2024-02-23T00:48:45;98861.66;;;5.26;100.00
49030;BME280;43337;52.070;4.508;2024-02-23T00:51:10;98855.19;;;5.17;100.00
49030;BME280;43337;52.070;4.508;2024-02-23T00:53:35;98869.75;;;5.21;100.00
49030;BME280;43337;52.070;4.508;2024-02-23T00:56:01;98848.44;;;5.13;100.00
49030;BME280;43337;52.070;4.508;2024-02-23T00:58:27;98889.38;;;5.28;100.00
49030;BME280;43337;52.070;4.508;2024-02-23T01:00:52;98902.88;;;5.36;100.00
49030;BME280;43337;52.070;4.508;2024-02-23T01:03:17;98897.94;;;5.30;100.00
49030;BME280;43337;52.070;4.508;2024-02-23T01:05:43;98900.16;;;5.38;100.00
49030;BME280;43337;52.070;4.508;2024-02-23T01:08:09;98907.16;;;5.37;100.00
49030;BME280;43337;52.070;4.508;2024-02-23T01:10:34;98894.16;;;5.20;100.00
49030;BME280;43337;52.070;4.508;2024-02-23T01:13:00;98914.13;;;5.37;100.00
49030;BME280;43337;52.070;4.508;2024-02-23T01:15:25;98902.50;;;5.27;100.00
49030;BME280;43337;52.070;4.508;2024-02-23T01:17:50;98899.97;;;5.25;100.00
49030;BME280;43337;52.070;4.508;2024-02-23T01:20:16;98914.63;;;5.28;100.00
49030;BME280;43337;52.070;4.508;2024-02-23T01:22:42;98927.44;;;5.32;100.00
49030;BME280;43337;52.070;4.508;2024-02-23T01:25:08;98940.13;;;5.23;100.00
49030;BME280;43337;52.070;4.508;2024-02-23T01:27:35;98912.38;;;5.04;100.00
49030;BME280;43337;52.070;4.508;2024-02-23T01:30:00;98956.22;;;5.13;100.00
49030;BME280;43337;52.070;4.508;2024-02-23T01:32:26;98966.13;;;5.07;100.00
49030;BME280;43337;52.070;4.508;2024-02-23T01:34:51;98941.28;;;4.82;100.00
49030;BME280;43337;52.070;4.508;2024-02-23T01:37:17;98917.50;;;4.54;100.00
49030;BME280;43337;52.070;4.508;2024-02-23T01:39:42;98957.50;;;4.70;100.00
49030;BME280;43337;52.070;4.508;2024-02-23T01:42:08;98945.16;;;4.56;100.00
49030;BME280;43337;52.070;4.508;2024-02-23T01:44:33;98956.25;;;4.60;100.00
49030;BME280;43337;52.070;4.508;2024-02-23T01:46:59;98937.47;;;4.53;100.00
49030;BME280;43337;52.070;4.508;2024-02-23T01:49:25;98953.50;;;4.63;100.00
49030;BME280;43337;52.070;4.508;2024-02-23T01:51:56;98942.41;;;4.59;100.00
49030;BME280;43337;52.070;4.508;2024-02-23T01:54:22;98955.13;;;4.65;100.00
49030;BME280;43337;52.070;4.508;2024-02-23T01:56:47;98960.25;;;4.67;100.00
49030;BME280;43337;52.070;4.508;2024-02-23T01:59:13;98951.97;;;4.59;100.00
49030;BME280;43337;52.070;4.508;2024-02-23T02:01:38;98956.03;;;4.64;100.00
49030;BME280;43337;52.070;4.508;2024-02-23T02:04:04;98980.03;;;4.71;100.00
49030;BME280;43337;52.070;4.508;2024-02-23T02:06:30;98943.47;;;4.55;100.00
49030;BME280;43337;52.070;4.508;2024-02-23T02:08:56;98955.19;;;4.64;100.00
49030;BME280;43337;52.070;4.508;2024-02-23T02:11:22;98940.25;;;4.50;100.00
49030;BME280;43337;52.070;4.508;2024-02-23T02:13:47;98946.22;;;4.52;100.00
49030;BME280;43337;52.070;4.508;2024-02-23T02:16:13;98978.28;;;4.72;100.00
49030;BME280;43337;52.070;4.508;2024-02-23T02:18:41;98970.41;;;4.73;100.00
49030;BME280;43337;52.070;4.508;2024-02-23T02:21:06;98956.13;;;4.63;100.00
49030;BME280;43337;52.070;4.508;2024-02-23T02:23:34;98954.75;;;4.73;100.00
49030;BME280;43337;52.070;4.508;2024-02-23T02:25:59;98930.09;;;4.44;100.00
49030;BME280;43337;52.070;4.508;2024-02-23T02:28:25;98945.09;;;4.58;100.00
49030;BME280;43337;52.070;4.508;2024-02-23T02:30:53;98978.13;;;4.75;100.00
49030;BME280;43337;52.070;4.508;2024-02-23T02:33:19;98960.41;;;4.64;100.00
49030;BME280;43337;52.070;4.508;2024-02-23T02:35:44;98981.53;;;4.77;100.00
49030;BME280;43337;52.070;4.508;2024-02-23T02:38:13;98952.22;;;4.54;100.00
49030;BME280;43337;52.070;4.508;2024-02-23T02:40:39;98975.38;;;4.78;100.00
49030;BME280;43337;52.070;4.508;2024-02-23T02:43:04;98983.13;;;4.79;100.00
49030;BME280;43337;52.070;4.508;2024-02-23T02:45:31;98973.53;;;4.80;100.00
49030;BME280;43337;52.070;4.508;2024-02-23T02:47:59;98978.59;;;4.83;100.00
49030;BME280;43337;52.070;4.508;2024-02-23T02:50:25;98982.06;;;4.83;100.00
49030;BME280;43337;52.070;4.508;2024-02-23T02:52:50;98977.84;;;4.81;100.00
49030;BME280;43337;52.070;4.508;2024-02-23T02:55:16;98953.28;;;4.68;100.00
49030;BME280;43337;52.070;4.508;2024-02-23T02:57:41;98972.28;;;4.88;100.00
49030;BME280;43337;52.070;4.508;2024-02-23T03:00:09;98978.47;;;4.86;100.00
49030;BME280;43337;52.070;4.508;2024-02-23T03:02:35;98979.91;;;4.92;100.00
49030;BME280;43337;52.070;4.508;2024-02-23T03:05:00;98976.69;;;4.86;100.00
49030;BME280;43337;52.070;4.508;2024-02-23T03:07:26;98957.38;;;4.73;100.00
49030;BME280;43337;52.070;4.508;2024-02-23T03:09:51;98979.91;;;4.92;100.00
49030;BME280;43337;52.070;4.508;2024-02-23T03:12:19;98997.41;;;4.89;100.00
49030;BME280;43337;52.070;4.508;2024-02-23T03:14:45;98992.34;;;4.86;100.00
49030;BME280;43337;52.070;4.508;2024-02-23T03:17:12;98986.03;;;4.73;100.00
49030;BME280;43337;52.070;4.508;2024-02-23T03:19:40;98986.34;;;4.67;100.00
49030;BME280;43337;52.070;4.508;2024-02-23T03:22:05;98993.09;;;4.71;100.00
49030;BME280;43337;52.070;4.508;2024-02-23T03:24:35;98999.44;;;4.65;100.00
49030;BME280;43337;52.070;4.508;2024-02-23T03:27:00;98992.47;;;4.66;100.00
49030;BME280;43337;52.070;4.508;2024-02-23T03:29:25;98998.56;;;4.65;100.00
49030;BME280;43337;52.070;4.508;2024-02-23T03:31:55;98992.69;;;4.61;100.00
49030;BME280;43337;52.070;4.508;2024-02-23T03:34:20;99001.34;;;4.62;100.00
49030;BME280;43337;52.070;4.508;2024-02-23T03:36:48;99003.31;;;4.57;100.00
49030;BME280;43337;52.070;4.508;2024-02-23T03:39:14;99005.03;;;4.58;100.00
49030;BME280;43337;52.070;4.508;2024-02-23T03:41:40;98976.31;;;4.40;100.00
49030;BME280;43337;52.070;4.508;2024-02-23T03:44:05;98966.19;;;4.34;100.00
49030;BME280;43337;52.070;4.508;2024-02-23T03:46:31;98999.38;;;4.48;100.00
49030;BME280;43337;52.070;4.508;2024-02-23T03:48:59;98972.38;;;4.32;100.00
49030;BME280;43337;52.070;4.508;2024-02-23T03:51:25;98995.16;;;4.46;100.00
49030;BME280;43337;52.070;4.508;2024-02-23T03:53:50;98999.53;;;4.45;100.00
49030;BME280;43337;52.070;4.508;2024-02-23T03:56:16;99002.34;;;4.40;100.00
49030;BME280;43337;52.070;4.508;2024-02-23T03:58:41;98987.31;;;4.28;100.00
49030;BME280;43337;52.070;4.508;2024-02-23T04:01:07;99006.88;;;4.37;100.00
49030;BME280;43337;52.070;4.508;2024-02-23T04:03:32;98972.25;;;4.16;100.00
49030;BME280;43337;52.070;4.508;2024-02-23T04:05:58;99002.09;;;4.28;100.00
49030;BME280;43337;52.070;4.508;2024-02-23T04:08:23;99007.31;;;4.28;100.00
49030;BME280;43337;52.070;4.508;2024-02-23T04:10:49;99003.16;;;4.24;100.00
49030;BME280;43337;52.070;4.508;2024-02-23T04:13:14;98978.78;;;4.06;100.00
49030;BME280;43337;52.070;4.508;2024-02-23T04:15:41;99002.66;;;4.15;100.00
49030;BME280;43337;52.070;4.508;2024-02-23T04:18:08;98995.81;;;4.13;100.00
49030;BME280;43337;52.070;4.508;2024-02-23T04:20:33;99023.28;;;4.20;100.00
49030;BME280;43337;52.070;4.508;2024-02-23T04:22:58;99011.94;;;4.21;100.00
49030;BME280;43337;52.070;4.508;2024-02-23T04:25:25;99022.50;;;4.18;100.00
49030;BME280;43337;52.070;4.508;2024-02-23T04:27:51;98994.53;;;4.03;100.00
49030;BME280;43337;52.070;4.508;2024-02-23T04:30:16;99033.69;;;4.20;100.00
49030;BME280;43337;52.070;4.508;2024-02-23T04:32:41;99036.22;;;4.22;100.00
49030;BME280;43337;52.070;4.508;2024-02-23T04:35:07;99028.34;;;4.23;100.00
49030;BME280;43337;52.070;4.508;2024-02-23T04:37:33;99007.16;;;4.12;100.00
49030;BME280;43337;52.070;4.508;2024-02-23T04:40:00;99029.06;;;4.27;100.00
49030;BME280;43337;52.070;4.508;2024-02-23T04:42:26;99008.56;;;4.19;100.00
49030;BME280;43337;52.070;4.508;2024-02-23T04:44:52;99036.31;;;4.39;100.00
49030;BME280;43337;52.070;4.508;2024-02-23T04:47:20;98987.09;;;4.14;100.00
49030;BME280;43337;52.070;4.508;2024-02-23T04:49:46;98995.34;;;4.24;100.00
49030;BME280;43337;52.070;4.508;2024-02-23T04:52:12;99027.34;;;4.45;100.00
49030;BME280;43337;52.070;4.508;2024-02-23T04:54:37;99000.19;;;4.31;100.00
49030;BME280;43337;52.070;4.508;2024-02-23T04:57:03;99021.22;;;4.46;100.00
49030;BME280;43337;52.070;4.508;2024-02-23T04:59:28;99022.09;;;4.46;100.00
49030;BME280;43337;52.070;4.508;2024-02-23T05:01:56;99023.06;;;4.44;100.00
49030;BME280;43337;52.070;4.508;2024-02-23T05:04:21;99006.16;;;4.33;100.00
49030;BME280;43337;52.070;4.508;2024-02-23T05:06:46;99028.97;;;4.47;100.00
49030;BME280;43337;52.070;4.508;2024-02-23T05:09:11;98999.88;;;4.37;100.00
49030;BME280;43337;52.070;4.508;2024-02-23T05:11:38;99033.88;;;4.53;100.00
49030;BME280;43337;52.070;4.508;2024-02-23T05:14:04;99026.00;;;4.55;100.00
49030;BME280;43337;52.070;4.508;2024-02-23T05:16:29;98995.59;;;4.36;100.00
49030;BME280;43337;52.070;4.508;2024-02-23T05:18:54;98986.94;;;4.36;100.00
49030;BME280;43337;52.070;4.508;2024-02-23T05:21:20;99018.25;;;4.53;100.00
49030;BME280;43337;52.070;4.508;2024-02-23T05:23:45;99008.28;;;4.44;100.00
49030;BME280;43337;52.070;4.508;2024-02-23T05:26:12;99001.28;;;4.45;100.00
49030;BME280;43337;52.070;4.508;2024-02-23T05:28:38;98989.28;;;4.42;100.00
49030;BME280;43337;52.070;4.508;2024-02-23T05:31:03;98993.47;;;4.45;100.00
49030;BME280;43337;52.070;4.508;2024-02-23T05:33:29;99006.94;;;4.54;100.00
49030;BME280;43337;52.070;4.508;2024-02-23T05:35:55;99000.94;;;4.52;100.00
49030;BME280;43337;52.070;4.508;2024-02-23T05:38:20;99008.38;;;4.60;100.00
49030;BME280;43337;52.070;4.508;2024-02-23T05:40:46;99005.78;;;4.60;100.00
49030;BME280;43337;52.070;4.508;2024-02-23T05:43:13;99010.00;;;4.62;100.00
49030;BME280;43337;52.070;4.508;2024-02-23T05:45:38;98954.63;;;4.40;100.00
49030;BME280;43337;52.070;4.508;2024-02-23T05:48:04;99006.03;;;4.73;100.00
49030;BME280;43337;52.070;4.508;2024-02-23T05:50:29;99005.03;;;4.75;100.00
49030;BME280;43337;52.070;4.508;2024-02-23T05:52:58;99003.13;;;4.79;100.00
49030;BME280;43337;52.070;4.508;2024-02-23T05:55:23;98983.25;;;4.76;100.00
49030;BME280;43337;52.070;4.508;2024-02-23T05:57:48;98980.13;;;4.70;100.00
49030;BME280;43337;52.070;4.508;2024-02-23T06:00:16;98991.03;;;4.78;100.00
49030;BME280;43337;52.070;4.508;2024-02-23T06:02:46;98999.47;;;4.83;100.00
49030;BME280;43337;52.070;4.508;2024-02-23T06:05:12;98991.66;;;4.83;100.00
49030;BME280;43337;52.070;4.508;2024-02-23T06:07:38;98976.00;;;4.65;100.00
49030;BME280;43337;52.070;4.508;2024-02-23T06:10:04;99002.06;;;4.83;100.00
49030;BME280;43337;52.070;4.508;2024-02-23T06:12:30;98996.84;;;4.83;100.00
49030;BME280;43337;52.070;4.508;2024-02-23T06:14:55;98963.72;;;4.68;100.00
49030;BME280;43337;52.070;4.508;2024-02-23T06:17:22;98990.03;;;4.80;100.00
49030;BME280;43337;52.070;4.508;2024-02-23T06:19:48;98993.41;;;4.82;100.00
49030;BME280;43337;52.070;4.508;2024-02-23T06:22:13;98978.97;;;4.75;100.00
49030;BME280;43337;52.070;4.508;2024-02-23T06:24:42;98995.09;;;4.83;100.00
49030;BME280;43337;52.070;4.508;2024-02-23T06:27:08;99001.16;;;4.84;100.00
49030;BME280;43337;52.070;4.508;2024-02-23T06:29:33;98990.72;;;4.84;100.00
49030;BME280;43337;52.070;4.508;2024-02-23T06:31:59;98953.50;;;4.63;100.00
49030;BME280;43337;52.070;4.508;2024-02-23T06:34:26;99004.53;;;4.86;100.00
49030;BME280;43337;52.070;4.508;2024-02-23T06:36:52;98968.88;;;4.69;100.00
49030;BME280;43337;52.070;4.508;2024-02-23T06:39:17;99003.69;;;4.85;100.00
49030;BME280;43337;52.070;4.508;2024-02-23T06:41:43;99001.94;;;4.86;100.00
49030;BME280;43337;52.070;4.508;2024-02-23T06:44:08;98983.44;;;4.73;100.00
49030;BME280;43337;52.070;4.508;2024-02-23T06:46:34;98993.41;;;4.82;100.00
49030;BME280;43337;52.070;4.508;2024-02-23T06:48:59;98987.28;;;4.83;100.00
49030;BME280;43337;52.070;4.508;2024-02-23T06:51:24;98994.19;;;4.84;100.00
49030;BME280;43337;52.070;4.508;2024-02-23T06:53:50;98992.47;;;4.83;100.00
49030;BME280;43337;52.070;4.508;2024-02-23T06:56:15;98950.50;;;4.53;100.00
49030;BME280;43337;52.070;4.508;2024-02-23T06:58:41;98975.53;;;4.75;100.00
49030;BME280;43337;52.070;4.508;2024-02-23T07:01:06;98997.78;;;4.82;100.00
49030;BME280;43337;52.070;4.508;2024-02-23T07:03:39;98993.50;;;4.81;100.00
49030;BME280;43337;52.070;4.508;2024-02-23T07:06:06;98996.84;;;4.83;100.00
49030;BME280;43337;52.070;4.508;2024-02-23T07:08:31;98998.63;;;4.82;100.00
49030;BME280;43337;52.070;4.508;2024-02-23T07:10:57;98997.69;;;4.83;100.00
49030;BME280;43337;52.070;4.508;2024-02-23T07:13:22;98991.66;;;4.83;100.00
49030;BME280;43337;52.070;4.508;2024-02-23T07:15:47;98993.78;;;4.75;100.00
49030;BME280;43337;52.070;4.508;2024-02-23T07:18:13;98992.00;;;4.75;100.00
49030;BME280;43337;52.070;4.508;2024-02-23T07:20:38;99001.50;;;4.76;100.00
49030;BME280;43337;52.070;4.508;2024-02-23T07:23:04;98966.53;;;4.63;100.00
49030;BME280;43337;52.070;4.508;2024-02-23T07:25:30;98964.31;;;4.55;100.00
49030;BME280;43337;52.070;4.508;2024-02-23T07:27:56;98989.06;;;4.64;100.00
49030;BME280;43337;52.070;4.508;2024-02-23T07:30:21;98989.88;;;4.66;100.00
49030;BME280;43337;52.070;4.508;2024-02-23T07:32:46;99000.34;;;4.64;100.00
49030;BME280;43337;52.070;4.508;2024-02-23T07:35:13;98995.13;;;4.64;100.00
49030;BME280;43337;52.070;4.508;2024-02-23T07:37:39;98988.47;;;4.59;100.00
49030;BME280;43337;52.070;4.508;2024-02-23T07:40:05;98973.91;;;4.55;100.00
49030;BME280;43337;52.070;4.508;2024-02-23T07:42:31;99000.78;;;4.55;100.00
49030;BME280;43337;52.070;4.508;2024-02-23T07:44:57;98994.19;;;4.48;100.00
49030;BME280;43337;52.070;4.508;2024-02-23T07:47:23;98991.09;;;4.40;100.00
49030;BME280;43337;52.070;4.508;2024-02-23T07:49:51;98951.56;;;4.13;100.00
49030;BME280;43337;52.070;4.508;2024-02-23T07:52:17;98970.84;;;4.09;100.00
49030;BME280;43337;52.070;4.508;2024-02-23T07:54:43;98973.44;;;4.09;100.00
49030;BME280;43337;52.070;4.508;2024-02-23T07:57:08;98957.34;;;4.01;100.00
49030;BME280;43337;52.070;4.508;2024-02-23T07:59:35;98947.63;;;3.85;100.00
49030;BME280;43337;52.070;4.508;2024-02-23T08:02:03;98977.31;;;4.00;100.00
49030;BME280;43337;52.070;4.508;2024-02-23T08:04:28;98988.56;;;4.01;100.00
49030;BME280;43337;52.070;4.508;2024-02-23T08:06:54;98974.84;;;3.97;100.00
49030;BME280;43337;52.070;4.508;2024-02-23T08:09:19;98980.75;;;4.01;100.00
49030;BME280;43337;52.070;4.508;2024-02-23T08:11:47;98980.91;;;3.98;100.00
49030;BME280;43337;52.070;4.508;2024-02-23T08:14:15;98939.94;;;3.82;100.00
49030;BME280;43337;52.070;4.508;2024-02-23T08:16:41;98930.16;;;3.87;100.00
49030;BME280;43337;52.070;4.508;2024-02-23T08:19:06;98951.69;;;3.91;100.00
49030;BME280;43337;52.070;4.508;2024-02-23T08:21:32;98973.44;;;4.09;100.00
49030;BME280;43337;52.070;4.508;2024-02-23T08:23:57;98926.00;;;3.83;100.00
49030;BME280;43337;52.070;4.508;2024-02-23T08:26:22;98952.03;;;4.02;100.00
49030;BME280;43337;52.070;4.508;2024-02-23T08:28:47;98983.44;;;4.18;100.00
49030;BME280;43337;52.070;4.508;2024-02-23T08:31:13;98966.19;;;4.15;100.00
49030;BME280;43337;52.070;4.508;2024-02-23T08:33:38;98981.75;;;4.17;100.00
49030;BME280;43337;52.070;4.508;2024-02-23T08:36:04;98943.38;;;4.02;100.00
49030;BME280;43337;52.070;4.508;2024-02-23T08:38:31;98986.81;;;4.20;100.00
49030;BME280;43337;52.070;4.508;2024-02-23T08:40:58;98942.34;;;4.06;100.00
49030;BME280;43337;52.070;4.508;2024-02-23T08:43:24;98970.41;;;4.18;100.00
49030;BME280;43337;52.070;4.508;2024-02-23T08:45:49;98978.78;;;4.25;100.00
49030;BME280;43337;52.070;4.508;2024-02-23T08:48:15;98976.25;;;4.23;100.00
49030;BME280;43337;52.070;4.508;2024-02-23T08:50:40;98982.31;;;4.24;100.00
49030;BME280;43337;52.070;4.508;2024-02-23T08:53:06;98929.19;;;3.90;100.00
49030;BME280;43337;52.070;4.508;2024-02-23T08:55:32;98949.88;;;4.12;100.00
49030;BME280;43337;52.070;4.508;2024-02-23T08:57:58;98959.84;;;4.21;100.00
49030;BME280;43337;52.070;4.508;2024-02-23T09:00:26;98937.81;;;4.09;100.00
49030;BME280;43337;52.070;4.508;2024-02-23T09:02:53;98958.72;;;4.27;100.00
49030;BME280;43337;52.070;4.508;2024-02-23T09:05:18;98931.69;;;4.10;100.00
49030;BME280;43337;52.070;4.508;2024-02-23T09:07:47;98917.97;;;4.07;100.00
49030;BME280;43337;52.070;4.508;2024-02-23T09:10:14;98967.72;;;4.38;100.00
49030;BME280;43337;52.070;4.508;2024-02-23T09:12:39;98926.00;;;4.21;100.00
49030;BME280;43337;52.070;4.508;2024-02-23T09:15:05;98999.53;;;4.45;100.00
49030;BME280;43337;52.070;4.508;2024-02-23T09:17:31;98962.84;;;4.50;100.00
49030;BME280;43337;52.070;4.508;2024-02-23T09:19:56;98911.56;;;4.14;100.00
49030;BME280;43337;52.070;4.508;2024-02-23T09:22:21;98970.22;;;4.59;100.00
49030;BME280;43337;52.070;4.508;2024-02-23T09:24:49;98960.91;;;4.53;100.00
49030;BME280;43337;52.070;4.508;2024-02-23T09:27:14;98945.00;;;4.59;100.00
49030;BME280;43337;52.070;4.508;2024-02-23T09:29:40;98956.88;;;4.65;100.00
49030;BME280;43337;52.070;4.508;2024-02-23T09:32:07;98926.06;;;4.56;100.00
49030;BME280;43337;52.070;4.508;2024-02-23T09:34:32;98951.00;;;4.79;100.00
49030;BME280;43337;52.070;4.508;2024-02-23T09:36:57;98984.94;;;4.96;100.00
49030;BME280;43337;52.070;4.508;2024-02-23T09:39:22;98969.88;;;5.01;100.00
49030;BME280;43337;52.070;4.508;2024-02-23T09:41:51;98990.38;;;5.09;100.00
49030;BME280;43337;52.070;4.508;2024-02-23T09:44:19;98982.31;;;5.13;100.00
49030;BME280;43337;52.070;4.508;2024-02-23T09:46:47;98986.38;;;5.19;100.00
49030;BME280;43337;52.070;4.508;2024-02-23T09:49:14;98939.72;;;4.96;100.00
49030;BME280;43337;52.070;4.508;2024-02-23T09:51:40;98993.84;;;5.27;100.00
49030;BME280;43337;52.070;4.508;2024-02-23T09:54:06;98974.34;;;5.17;100.00
49030;BME280;43337;52.070;4.508;2024-02-23T09:56:32;99000.19;;;5.38;100.00
49030;BME280;43337;52.070;4.508;2024-02-23T09:59:02;98989.75;;;5.38;100.00
49030;BME280;43337;52.070;4.508;2024-02-23T10:01:29;98996.03;;;5.52;100.00
49030;BME280;43337;52.070;4.508;2024-02-23T10:03:57;99006.06;;;5.59;100.00
49030;BME280;43337;52.070;4.508;2024-02-23T10:06:26;98988.09;;;5.53;100.00
49030;BME280;43337;52.070;4.508;2024-02-23T10:08:52;99012.28;;;5.74;100.00
49030;BME280;43337;52.070;4.508;2024-02-23T10:11:20;98974.06;;;5.56;100.00
49030;BME280;43337;52.070;4.508;2024-02-23T10:13:50;99031.75;;;5.84;100.00
49030;BME280;43337;52.070;4.508;2024-02-23T10:16:16;99027.13;;;5.90;100.00
49030;BME280;43337;52.070;4.508;2024-02-23T10:18:42;99021.69;;;5.94;100.00
49030;BME280;43337;52.070;4.508;2024-02-23T10:21:09;99021.38;;;6.00;100.00
49030;BME280;43337;52.070;4.508;2024-02-23T10:23:35;99022.06;;;6.04;100.00
49030;BME280;43337;52.070;4.508;2024-02-23T10:26:05;98991.31;;;5.92;100.00
49030;BME280;43337;52.070;4.508;2024-02-23T10:28:30;99027.38;;;6.18;100.00
49030;BME280;43337;52.070;4.508;2024-02-23T10:30:57;99011.78;;;6.17;100.00
49030;BME280;43337;52.070;4.508;2024-02-23T10:33:26;99027.91;;;6.25;100.00
49030;BME280;43337;52.070;4.508;2024-02-23T10:35:56;99036.09;;;6.34;100.00
49030;BME280;43337;52.070;4.508;2024-02-23T10:38:26;99003.88;;;6.18;100.00
49030;BME280;43337;52.070;4.508;2024-02-23T10:40:57;99024.13;;;6.30;100.00
49030;BME280;43337;52.070;4.508;2024-02-23T10:43:30;99019.53;;;6.18;100.00
49030;BME280;43337;52.070;4.508;2024-02-23T10:45:58;99067.28;;;6.38;100.00
49030;BME280;43337;52.070;4.508;2024-02-23T10:48:26;99057.16;;;6.31;100.00
49030;BME280;43337;52.070;4.508;2024-02-23T10:50:53;99051.94;;;6.31;100.00
49030;BME280;43337;52.070;4.508;2024-02-23T10:53:19;99051.84;;;6.49;100.00
49030;BME280;43337;52.070;4.508;2024-02-23T10:55:46;99057.50;;;6.57;100.00
49030;BME280;43337;52.070;4.508;2024-02-23T10:58:12;99030.28;;;6.45;100.00
49030;BME280;43337;52.070;4.508;2024-02-23T11:00:39;99067.66;;;6.63;100.00
49030;BME280;43337;52.070;4.508;2024-02-23T11:03:05;99057.09;;;6.65;100.00
49030;BME280;43337;52.070;4.508;2024-02-23T11:05:33;99040.72;;;6.61;100.00
49030;BME280;43337;52.070;4.508;2024-02-23T11:07:59;99050.28;;;6.78;100.00
49030;BME280;43337;52.070;4.508;2024-02-23T11:10:24;99080.28;;;6.87;100.00
49030;BME280;43337;52.070;4.508;2024-02-23T11:13:01;99072.44;;;6.87;100.00
49030;BME280;43337;52.070;4.508;2024-02-23T11:15:27;99051.63;;;6.69;100.00
49030;BME280;43337;52.070;4.508;2024-02-23T11:17:54;99087.03;;;6.91;100.00
49030;BME280;43337;52.070;4.508;2024-02-23T11:20:20;99087.22;;;6.88;100.00
49030;BME280;43337;52.070;4.508;2024-02-23T11:22:52;99072.03;;;6.78;100.00
49030;BME280;43337;52.070;4.508;2024-02-23T11:25:18;99068.16;;;6.70;100.00
49030;BME280;43337;52.070;4.508;2024-02-23T11:27:43;99095.56;;;6.78;100.00
49030;BME280;43337;52.070;4.508;2024-02-23T11:30:10;99089.66;;;6.75;100.00
49030;BME280;43337;52.070;4.508;2024-02-23T11:32:45;99096.50;;;6.77;100.00
49030;BME280;43337;52.070;4.508;2024-02-23T11:35:13;99105.09;;;6.79;100.00
49030;BME280;43337;52.070;4.508;2024-02-23T11:37:52;99105.09;;;6.79;100.00
49030;BME280;43337;52.070;4.508;2024-02-23T11:40:28;99086.31;;;6.73;100.00
49030;BME280;43337;52.070;4.508;2024-02-23T11:42:55;99067.56;;;6.65;100.00
49030;BME280;43337;52.070;4.508;2024-02-23T11:45:21;99089.34;;;6.81;100.00
49030;BME280;43337;52.070;4.508;2024-02-23T11:47:47;99091.75;;;6.84;100.00
49030;BME280;43337;52.070;4.508;2024-02-23T11:50:15;99064.72;;;6.69;100.00
49030;BME280;43337;52.070;4.508;2024-02-23T11:52:42;99086.09;;;6.92;100.00
49030;BME280;43337;52.070;4.508;2024-02-23T11:55:08;99076.25;;;6.81;100.00
49030;BME280;43337;52.070;4.508;2024-02-23T11:57:34;99089.91;;;7.02;100.00
49030;BME280;43337;52.070;4.508;2024-02-23T12:00:03;99049.00;;;6.85;100.00
49030;BME280;43337;52.070;4.508;2024-02-23T12:02:29;99098.69;;;7.17;100.00
49030;BME280;43337;52.070;4.508;2024-02-23T12:04:54;99092.44;;;7.19;100.00
49030;BME280;43337;52.070;4.508;2024-02-23T12:07:19;99090.56;;;7.21;100.00
49030;BME280;43337;52.070;4.508;2024-02-23T12:09:47;99092.44;;;7.19;100.00
49030;BME280;43337;52.070;4.508;2024-02-23T12:12:13;99102.69;;;7.22;100.00
49030;BME280;43337;52.070;4.508;2024-02-23T12:14:39;99092.66;;;7.30;100.00
49030;BME280;43337;52.070;4.508;2024-02-23T12:17:05;99063.41;;;7.08;100.00
49030;BME280;43337;52.070;4.508;2024-02-23T12:19:37;99114.84;;;7.39;100.00
49030;BME280;43337;52.070;4.508;2024-02-23T12:22:04;99069.28;;;7.27;100.00
49030;BME280;43337;52.070;4.508;2024-02-23T12:24:29;99107.66;;;7.43;100.00
49030;BME280;43337;52.070;4.508;2024-02-23T12:26:55;99123.22;;;7.46;100.00
49030;BME280;43337;52.070;4.508;2024-02-23T12:29:21;99096.44;;;7.41;100.00
49030;BME280;43337;52.070;4.508;2024-02-23T12:31:47;99129.69;;;7.54;100.00
49030;BME280;43337;52.070;4.508;2024-02-23T12:34:15;99097.59;;;7.51;100.00
49030;BME280;43337;52.070;4.508;2024-02-23T12:36:42;99090.25;;;7.42;100.00
49030;BME280;43337;52.070;4.508;2024-02-23T12:39:08;99123.91;;;7.64;100.00
49030;BME280;43337;52.070;4.508;2024-02-23T12:41:35;99128.97;;;7.67;100.00
49030;BME280;43337;52.070;4.508;2024-02-23T12:44:01;99133.75;;;7.74;100.00
49030;BME280;43337;52.070;4.508;2024-02-23T12:46:26;99116.41;;;7.57;100.00
49030;BME280;43337;52.070;4.508;2024-02-23T12:48:54;99124.06;;;7.76;100.00
49030;BME280;43337;52.070;4.508;2024-02-23T12:51:25;99115.88;;;7.67;100.00
49030;BME280;43337;52.070;4.508;2024-02-23T12:53:52;99111.13;;;7.73;100.00
49030;BME280;43337;52.070;4.508;2024-02-23T12:56:17;99106.91;;;7.71;100.00